createdAt,value
2022-10-22T00:04:52.336Z,1.15
2022-10-22T00:16:22.706Z,1.25
2022-10-22T00:19:15.883Z,1.67
2022-10-22T00:21:58.863Z,2.03
2022-10-22T00:24:46.040Z,1.30
2022-10-22T00:27:28.343Z,1.38
2022-10-22T00:34:53.336Z,0.93
2022-10-22T00:41:45.171Z,1.05
2022-10-22T00:48:35.130Z,0.57
2022-10-22T00:55:24.649Z,0.60
2022-10-22T00:58:35.045Z,1.05
2022-10-22T01:01:52.986Z,1.60
2022-10-22T01:04:55.391Z,0.90
2022-10-22T01:07:45.565Z,1.02
2022-10-22T01:14:46.309Z,1.20
2022-10-22T01:17:41.582Z,0.82
2022-10-22T01:20:40.151Z,0.60
2022-10-22T01:23:51.901Z,0.68
2022-10-22T01:26:45.683Z,0.70
2022-10-22T01:29:43.899Z,0.50
2022-10-22T01:44:58.987Z,0.17
2022-10-22T01:48:44.606Z,2.47
2022-10-22T02:00:08.562Z,0.20
2022-10-22T02:07:10.868Z,0.32
2022-10-22T02:09:46.342Z,0.50
2022-10-22T02:12:33.663Z,0.35
2022-10-22T02:15:12.125Z,0.20
2022-10-22T02:18:05.044Z,2.55
2022-10-22T02:21:02.750Z,0.95
2022-10-22T02:23:38.347Z,0.10
2022-10-22T02:26:22.475Z,0.85
2022-10-22T02:29:05.065Z,0.38
2022-10-22T02:32:05.962Z,0.63
2022-10-22T02:34:47.395Z,0.20
2022-10-22T02:37:29.293Z,0.32
2022-10-22T02:40:11.857Z,0.38
2022-10-22T02:42:52.389Z,0.93
2022-10-22T02:45:34.058Z,0.22
2022-10-22T02:48:12.228Z,0.85
2022-10-22T02:51:09.682Z,1.13
2022-10-22T02:53:57.470Z,0.88
2022-10-22T02:56:32.268Z,0.93
2022-10-22T02:59:17.787Z,0.57
2022-10-22T03:10:21.865Z,0.25
2022-10-22T03:13:50.855Z,0.50
2022-10-22T03:16:45.740Z,0.35
2022-10-22T03:19:21.927Z,0.55
2022-10-22T03:22:01.482Z,0.20
2022-10-22T03:24:55.885Z,0.32
2022-10-22T03:27:37.374Z,0.22
2022-10-22T03:30:15.705Z,0.35
2022-10-22T03:33:04.390Z,0.52
2022-10-22T03:35:45.776Z,1.40
2022-10-22T03:38:21.620Z,0.20
2022-10-22T03:41:16.353Z,0.40
2022-10-22T03:43:54.402Z,0.75
2022-10-22T03:46:33.486Z,0.20
2022-10-22T03:50:18.959Z,0.10
2022-10-22T03:52:54.152Z,0.50
2022-10-22T03:59:45.471Z,0.20
2022-10-22T04:02:19.887Z,0.52
2022-10-22T04:04:54.213Z,0.30
2022-10-22T04:07:33.587Z,0.20
2022-10-22T04:10:09.672Z,0.75
2022-10-22T04:12:45.421Z,0.75
2022-10-22T04:15:22.158Z,0.30
2022-10-22T04:30:29.878Z,0.28
2022-10-22T04:41:26.777Z,0.57
2022-10-22T04:44:45.098Z,0.73
2022-10-22T04:48:09.933Z,0.40
2022-10-22T04:50:44.286Z,1.00
2022-10-22T04:53:19.391Z,1.08
2022-10-22T04:55:54.635Z,0.50
2022-10-22T04:58:30.190Z,1.33
2022-10-22T05:01:15.786Z,0.40
2022-10-22T05:03:55.130Z,0.55
2022-10-22T05:06:36.008Z,0.60
2022-10-22T05:09:39.393Z,1.15
2022-10-22T05:12:14.177Z,1.77
2022-10-22T05:14:57.813Z,0.52
2022-10-22T05:17:54.334Z,2.15
2022-10-22T05:20:30.781Z,1.80
2022-10-22T05:23:05.982Z,0.75
2022-10-22T05:25:46.545Z,2.78
2022-10-22T05:28:21.266Z,2.45
2022-10-22T05:30:59.687Z,1.02
2022-10-22T05:33:35.353Z,0.98
2022-10-22T05:36:14.975Z,0.45
2022-10-22T05:38:52.628Z,1.17
2022-10-22T05:41:28.875Z,0.57
2022-10-22T05:44:05.238Z,0.60
2022-10-22T05:46:52.873Z,1.25
2022-10-22T05:49:41.235Z,0.68
2022-10-22T05:52:25.077Z,1.73
2022-10-22T05:55:09.981Z,0.80
2022-10-22T05:57:53.069Z,1.20
2022-10-22T06:00:34.675Z,0.52
2022-10-22T06:03:12.323Z,0.35
2022-10-22T06:05:47.591Z,0.80
2022-10-22T06:09:43.681Z,0.70
2022-10-22T06:17:14.453Z,1.17
2022-10-22T06:19:53.880Z,0.40
2022-10-22T06:22:33.549Z,0.52
2022-10-22T06:25:09.608Z,0.60
2022-10-22T06:27:44.771Z,0.38
2022-10-22T06:30:20.357Z,0.25
2022-10-22T06:33:00.330Z,0.85
2022-10-22T06:36:32.679Z,0.95
2022-10-22T06:44:00.250Z,0.90
2022-10-22T06:46:57.894Z,0.90
2022-10-22T06:49:37.983Z,1.33
2022-10-22T06:52:28.477Z,1.33
2022-10-22T06:57:58.090Z,1.42
2022-10-22T07:03:13.808Z,0.20
2022-10-22T07:10:31.580Z,0.20
2022-10-22T07:13:09.567Z,1.38
2022-10-22T07:16:04.020Z,0.30
2022-10-22T07:23:09.265Z,0.70
2022-10-22T07:26:48.324Z,1.15
2022-10-22T07:34:44.732Z,1.08
2022-10-22T07:37:23.735Z,1.02
2022-10-22T07:56:49.922Z,1.35
2022-10-22T07:59:24.577Z,1.00
2022-10-22T08:06:13.826Z,0.60
2022-10-22T08:08:57.814Z,0.98
2022-10-22T08:15:47.258Z,0.93
2022-10-22T08:22:27.277Z,0.75
2022-10-22T08:25:11.454Z,0.70
2022-10-22T08:27:51.381Z,0.65
2022-10-22T08:30:29.874Z,0.38
2022-10-22T08:33:11.371Z,1.63
2022-10-22T08:36:33.524Z,0.93
2022-10-22T08:39:08.243Z,0.82
2022-10-22T08:46:15.658Z,0.82
2022-10-22T08:50:07.662Z,1.85
2022-10-22T08:52:46.059Z,0.80
2022-10-22T08:55:21.923Z,0.43
2022-10-22T09:02:02.951Z,0.40
2022-10-22T09:09:16.664Z,0.50
2022-10-22T09:11:53.779Z,3.20
2022-10-22T09:15:42.619Z,3.60
2022-10-22T09:19:21.818Z,1.40
2022-10-22T09:26:27.841Z,1.35
2022-10-22T09:33:52.036Z,0.68
2022-10-22T09:37:20.464Z,0.85
2022-10-22T09:49:16.992Z,0.88
2022-10-22T09:51:56.192Z,0.90
2022-10-22T09:54:54.215Z,2.03
2022-10-22T09:57:38.740Z,0.98
2022-10-22T10:00:28.830Z,0.32
2022-10-22T10:03:29.357Z,0.52
2022-10-22T10:09:37.113Z,0.98
2022-10-22T10:12:40.848Z,0.45
2022-10-22T10:15:38.002Z,2.05
2022-10-22T10:18:37.942Z,1.10
2022-10-22T10:21:51.487Z,1.35
2022-10-22T10:29:04.845Z,1.85
2022-10-22T10:36:03.712Z,1.23
2022-10-22T10:39:04.047Z,0.65
2022-10-22T10:42:22.746Z,1.60
2022-10-22T10:45:28.362Z,1.23
2022-10-22T10:48:25.924Z,0.40
2022-10-22T10:55:32.204Z,0.60
2022-10-22T11:03:01.825Z,1.85
2022-10-22T11:10:03.108Z,0.70
2022-10-22T11:29:05.484Z,5.13
2022-10-22T11:35:53.286Z,1.08
2022-10-22T11:47:08.877Z,0.68
2022-10-22T11:51:07.853Z,0.85
2022-10-22T11:57:51.027Z,1.58
2022-10-22T12:09:14.454Z,0.70
2022-10-22T12:16:11.583Z,0.38
2022-10-22T12:26:59.953Z,1.88
2022-10-22T12:34:01.328Z,1.55
2022-10-22T12:45:00.452Z,2.05
2022-10-22T13:11:56.233Z,1.67
2022-10-22T13:19:39.326Z,1.25
2022-10-22T13:34:49.234Z,0.90
2022-10-22T13:48:34.408Z,1.30
2022-10-22T13:55:25.632Z,3.70
2022-10-22T13:58:29.275Z,1.02
2022-10-22T14:02:06.506Z,1.50
2022-10-22T14:05:05.271Z,1.50
2022-10-22T14:08:50.901Z,0.77
2022-10-22T14:12:07.978Z,1.00
2022-10-22T14:14:43.944Z,0.52
2022-10-22T14:17:22.040Z,1.38
2022-10-22T14:24:16.749Z,1.77
2022-10-22T14:27:40.303Z,1.73
2022-10-22T14:34:29.114Z,1.35
2022-10-22T14:41:25.201Z,0.50
2022-10-22T14:48:12.745Z,1.75
2022-10-22T14:55:00.638Z,1.58
2022-10-22T14:57:46.996Z,1.40
2022-10-22T15:09:06.882Z,1.08
2022-10-22T15:15:56.687Z,0.98
2022-10-22T15:18:34.596Z,1.05
2022-10-22T15:21:17.752Z,1.67
2022-10-22T15:24:03.529Z,1.55
2022-10-22T15:26:44.391Z,2.13
2022-10-22T15:29:19.453Z,1.48
2022-10-22T15:47:25.679Z,0.60
2022-10-22T15:50:21.707Z,2.80
2022-10-22T15:52:57.785Z,1.55
2022-10-22T15:55:33.018Z,1.05
2022-10-22T15:58:08.600Z,1.48
2022-10-22T16:05:26.722Z,1.52
2022-10-22T16:16:08.388Z,1.55
2022-10-22T16:19:18.325Z,2.70
2022-10-22T16:32:32.057Z,6.50
2022-10-22T16:35:22.163Z,3.83
2022-10-22T16:38:01.874Z,0.95
2022-10-22T16:40:43.569Z,1.65
2022-10-22T16:43:18.487Z,4.10
2022-10-22T16:54:23.048Z,0.73
2022-10-22T17:02:00.462Z,2.50
2022-10-22T17:09:33.634Z,1.50
2022-10-22T17:12:24.187Z,1.95
2022-10-22T17:31:37.485Z,0.80
2022-10-22T17:38:06.599Z,1.90
2022-10-22T17:54:15.192Z,1.58
2022-10-22T17:57:41.651Z,3.65
2022-10-22T18:01:28.245Z,5.93
2022-10-22T18:04:05.670Z,4.35
2022-10-22T18:06:40.278Z,1.88
2022-10-22T18:09:23.428Z,1.13
2022-10-22T18:11:58.958Z,4.28
2022-10-22T18:14:40.228Z,3.28
2022-10-22T18:17:16.383Z,3.72
2022-10-22T18:25:04.995Z,4.82
2022-10-22T18:27:40.536Z,3.88
2022-10-22T18:30:55.402Z,3.30
2022-10-22T18:33:39.169Z,2.17
2022-10-22T18:36:58.617Z,2.80
2022-10-22T18:48:14.647Z,2.05
2022-10-22T18:55:28.668Z,4.43
2022-10-22T19:01:42.759Z,3.17
2022-10-22T19:04:24.203Z,3.33
2022-10-22T19:06:59.127Z,3.35
2022-10-22T19:09:59.601Z,2.25
2022-10-22T19:12:34.028Z,3.25
2022-10-22T19:15:11.673Z,3.00
2022-10-22T19:17:46.053Z,2.80
2022-10-22T19:20:24.703Z,1.73
2022-10-22T19:23:00.450Z,2.38
2022-10-22T19:25:40.193Z,2.22
2022-10-22T19:28:14.711Z,2.45
2022-10-22T19:30:49.553Z,2.38
2022-10-22T19:33:33.009Z,2.08
2022-10-22T19:36:28.697Z,3.25
2022-10-22T19:39:10.307Z,6.15
2022-10-22T19:45:57.687Z,5.00
2022-10-22T19:48:57.822Z,3.55
2022-10-22T19:51:35.997Z,1.15
2022-10-22T19:54:19.031Z,2.08
2022-10-22T19:57:22.415Z,3.35
2022-10-22T20:00:17.863Z,6.15
2022-10-22T20:03:01.179Z,5.15
2022-10-22T20:06:27.403Z,3.70
2022-10-22T20:15:11.964Z,3.13
2022-10-22T20:17:47.530Z,1.98
2022-10-22T20:26:28.626Z,4.07
2022-10-22T20:32:36.379Z,3.72
2022-10-22T20:35:11.935Z,4.28
2022-10-22T20:37:52.549Z,3.70
2022-10-22T20:43:24.632Z,3.38
2022-10-22T20:46:08.424Z,2.10
2022-10-22T20:48:55.922Z,3.33
2022-10-22T20:51:31.405Z,2.80
2022-10-22T20:54:22.615Z,4.03
2022-10-22T20:57:00.006Z,3.38
2022-10-22T20:59:47.726Z,4.13
2022-10-22T21:02:23.038Z,2.08
2022-10-22T21:04:58.253Z,2.67
2022-10-22T21:07:34.099Z,1.45
2022-10-22T21:10:10.110Z,2.95
2022-10-22T21:12:45.758Z,5.43
2022-10-22T21:15:22.550Z,2.67
2022-10-22T21:17:58.072Z,3.97
2022-10-22T21:20:35.108Z,2.60
2022-10-22T21:24:20.252Z,2.22
2022-10-22T21:27:28.063Z,3.45
2022-10-22T21:30:17.511Z,1.83
2022-10-22T21:32:56.117Z,3.50
2022-10-22T21:35:34.571Z,4.22
2022-10-22T21:38:27.756Z,1.83
2022-10-22T21:41:06.762Z,2.15
2022-10-22T21:43:58.921Z,3.63
2022-10-22T21:46:46.139Z,3.40
2022-10-22T21:50:01.469Z,2.53
2022-10-22T21:52:40.121Z,2.33
2022-10-22T21:55:14.403Z,3.25
2022-10-22T21:57:48.955Z,3.15
2022-10-22T22:01:38.121Z,2.08
2022-10-22T22:04:22.088Z,3.40
2022-10-22T22:06:57.926Z,1.73
2022-10-22T22:09:34.113Z,3.72
2022-10-22T22:12:09.488Z,3.50
2022-10-22T22:14:44.026Z,4.63
2022-10-22T22:17:18.688Z,3.53
2022-10-22T22:19:52.976Z,3.08
2022-10-22T22:22:29.094Z,3.40
2022-10-22T22:25:04.364Z,3.83
2022-10-22T22:27:38.933Z,2.75
2022-10-22T22:30:13.919Z,3.55
2022-10-22T22:33:15.630Z,2.97
2022-10-22T22:35:52.117Z,3.20
2022-10-22T22:38:55.465Z,2.58
2022-10-22T22:41:40.428Z,4.13
2022-10-22T22:44:16.799Z,3.08
2022-10-22T22:47:04.314Z,3.92
2022-10-22T22:49:38.730Z,5.78
2022-10-22T22:52:13.264Z,2.28
2022-10-22T22:54:59.725Z,4.22
2022-10-22T22:57:52.059Z,3.83
2022-10-22T23:00:26.503Z,3.28
2022-10-22T23:03:10.176Z,4.75
2022-10-22T23:05:46.156Z,2.95
2022-10-22T23:08:22.066Z,5.22
2022-10-22T23:11:04.137Z,4.30
2022-10-22T23:13:39.550Z,5.47
2022-10-22T23:16:19.296Z,4.15
2022-10-22T23:18:55.913Z,3.47
2022-10-22T23:21:37.227Z,3.92
2022-10-22T23:24:15.284Z,4.35
2022-10-22T23:26:53.807Z,5.07
2022-10-22T23:29:37.446Z,3.65
2022-10-22T23:32:16.142Z,5.35
2022-10-22T23:34:52.188Z,4.88
2022-10-22T23:37:28.132Z,5.03
2022-10-22T23:40:04.326Z,4.90
2022-10-22T23:42:53.784Z,4.70
2022-10-22T23:45:28.208Z,4.30
2022-10-22T23:48:02.529Z,3.80
2022-10-22T23:50:38.315Z,4.07
2022-10-22T23:53:12.750Z,4.65
2022-10-22T23:55:47.103Z,5.20
2022-10-22T23:58:23.693Z,4.55
